Time;durP1;ratioP1;P1;durP2;ratioP2;P2;SDS_P1;SDS_P2;PMS_P1;PMS_P2;Temp;Humidity;BMP_temperature;BMP_pressure;BME280_temperature;BME280_humidity;BME280_pressure;Samples;Min_cycle;Max_cycle;Signal;HPM_P1;HPM_P2
2021/03/01 00:02:29;;;;;;;17.25;10.50;;;;;;;3.54;76.38;101765.09;147528;1146;104559;-77
2021/03/01 00:05:32;;;;;;;15.97;10.10;;;;;;;3.56;75.28;101766.78;147565;1148;104535;-76
2021/03/01 00:08:35;;;;;;;15.40;9.28;;;;;;;3.53;75.14;101755.44;147772;1147;104627;-80
2021/03/01 00:11:38;;;;;;;17.02;10.40;;;;;;;3.52;76.36;101756.38;147733;1147;104576;-79
2021/03/01 00:14:42;;;;;;;15.75;9.95;;;;;;;3.50;75.64;101762.64;147287;1147;104485;-81
2021/03/01 00:17:45;;;;;;;16.47;10.00;;;;;;;3.49;75.52;101763.58;147245;1147;104614;-75
2021/03/01 00:20:48;;;;;;;17.60;10.80;;;;;;;3.48;75.95;101770.65;147544;1147;104517;-75
2021/03/01 00:23:51;;;;;;;15.40;10.03;;;;;;;3.40;76.50;101762.20;147321;1146;104607;-76
2021/03/01 00:26:55;;;;;;;16.00;10.20;;;;;;;3.38;76.41;101765.84;147811;1147;104533;-76
2021/03/01 00:29:58;;;;;;;16.80;9.73;;;;;;;3.40;75.10;101772.76;147683;1147;104535;-76
2021/03/01 00:33:01;;;;;;;16.07;10.67;;;;;;;3.40;76.23;101778.03;147303;1147;104485;-75
2021/03/01 00:36:05;;;;;;;15.43;10.58;;;;;;;3.39;76.63;101786.89;147509;1147;105113;-80
2021/03/01 00:39:08;;;;;;;16.55;10.88;;;;;;;3.38;75.82;101785.17;147794;1147;104529;-77
2021/03/01 00:42:11;;;;;;;18.85;10.72;;;;;;;3.28;76.90;101784.72;147429;1147;104543;-76
2021/03/01 00:45:16;;;;;;;17.15;11.08;;;;;;;3.24;75.08;101790.22;147585;1147;104546;-80
2021/03/01 00:48:19;;;;;;;16.97;10.35;;;;;;;3.25;76.06;101792.80;147402;1147;104566;-75
2021/03/01 00:51:22;;;;;;;17.63;10.17;;;;;;;3.27;76.27;101782.15;147786;1148;104471;-79
2021/03/01 00:54:25;;;;;;;15.93;10.18;;;;;;;3.29;75.80;101790.84;147732;1148;105091;-77
2021/03/01 00:57:29;;;;;;;16.73;11.03;;;;;;;3.24;76.85;101791.06;147457;1146;104479;-76
2021/03/01 01:00:33;;;;;;;16.48;11.33;;;;;;;3.25;76.85;101790.16;147484;1147;104579;-80
2021/03/01 01:03:38;;;;;;;16.57;10.67;;;;;;;3.24;75.21;101798.13;147838;1148;104476;-80
2021/03/01 01:06:48;;;;;;;17.07;11.08;;;;;;;3.25;76.21;101798.06;147675;1147;104457;-77
2021/03/01 01:09:52;;;;;;;18.00;10.90;;;;;;;3.28;76.87;101800.55;147648;1147;104543;-78
2021/03/01 01:12:55;;;;;;;16.80;10.32;;;;;;;3.30;76.64;101803.13;147551;1147;104805;-79
2021/03/01 01:15:59;;;;;;;16.13;11.10;;;;;;;3.32;76.75;101799.48;147636;1147;104454;-79
2021/03/01 01:19:03;;;;;;;17.70;11.93;;;;;;;3.28;76.84;101795.27;147532;1147;104550;-77
2021/03/01 01:22:06;;;;;;;17.50;11.83;;;;;;;3.24;76.79;101798.13;147579;1146;104549;-75
2021/03/01 01:25:12;;;;;;;19.02;11.75;;;;;;;3.23;75.31;101791.12;147747;1147;104645;-80
2021/03/01 01:28:15;;;;;;;18.67;11.70;;;;;;;3.19;76.90;101790.40;147851;1146;104546;-80
2021/03/01 01:31:18;;;;;;;18.25;11.57;;;;;;;3.20;75.72;101786.00;147703;1147;104513;-81
2021/03/01 01:34:22;;;;;;;17.80;11.10;;;;;;;3.20;75.72;101797.41;147240;1147;104478;-75
2021/03/01 01:37:25;;;;;;;20.20;12.80;;;;;;;3.21;75.43;101800.89;147568;1146;104454;-73
2021/03/01 01:40:28;;;;;;;17.65;12.25;;;;;;;3.21;77.04;101799.09;147694;1147;104524;-73
2021/03/01 01:43:31;;;;;;;20.57;12.13;;;;;;;3.20;75.79;101807.95;147772;1148;104503;-75
2021/03/01 01:46:35;;;;;;;19.30;12.33;;;;;;;3.21;76.25;101806.17;147747;1147;104489;-73
2021/03/01 01:49:38;;;;;;;19.87;12.03;;;;;;;3.16;75.71;101801.11;147747;1147;104547;-74
2021/03/01 01:52:41;;;;;;;21.83;12.80;;;;;;;3.19;76.29;101802.73;147760;1148;104525;-82
2021/03/01 01:55:45;;;;;;;16.80;11.10;;;;;;;3.24;75.70;101801.61;147636;1146;104530;-82
2021/03/01 01:58:48;;;;;;;17.85;11.70;;;;;;;3.27;77.00;101800.61;147825;1147;104469;-80
2021/03/01 02:01:52;;;;;;;20.62;12.45;;;;;;;3.28;76.24;101797.06;147738;1147;104519;-78
2021/03/01 02:05:02;;;;;;;20.25;13.10;;;;;;;3.26;76.52;101796.28;147746;1147;104465;-81
2021/03/01 02:08:10;;;;;;;22.40;13.67;;;;;;;3.22;76.79;101794.70;147525;1147;104453;-80
2021/03/01 02:11:23;;;;;;;21.50;13.77;;;;;;;3.17;76.34;101791.41;147503;1148;104525;-82
2021/03/01 02:14:39;;;;;;;22.07;13.07;;;;;;;3.18;76.71;101793.98;147615;1147;104580;-83
2021/03/01 02:17:42;;;;;;;20.23;12.98;;;;;;;3.23;75.89;101791.12;147486;1147;104546;-80
2021/03/01 02:20:47;;;;;;;20.55;13.43;;;;;;;3.29;76.50;101793.48;147511;1147;104451;-83
2021/03/01 02:23:50;;;;;;;20.48;13.72;;;;;;;3.31;75.45;101799.55;147515;1147;104474;-80
2021/03/01 02:26:57;;;;;;;23.27;14.80;;;;;;;3.32;75.80;101809.19;147821;1146;104608;-79
2021/03/01 02:30:05;;;;;;;21.62;13.80;;;;;;;3.29;76.03;101806.67;147636;1147;104574;-81
2021/03/01 02:33:14;;;;;;;24.75;14.35;;;;;;;3.27;76.06;101809.41;147395;1146;104541;-81
2021/03/01 02:36:22;;;;;;;22.58;13.35;;;;;;;3.32;75.72;101809.19;147506;1147;104538;-84
2021/03/01 02:39:28;;;;;;;19.95;12.63;;;;;;;3.38;75.83;101814.19;147635;1148;104535;-85
2021/03/01 02:42:32;;;;;;;22.05;13.43;;;;;;;3.39;76.31;101817.67;147391;1147;104642;-77
2021/03/01 02:45:36;;;;;;;20.40;13.37;;;;;;;3.47;76.37;101816.42;147403;1147;104541;-79
2021/03/01 02:48:42;;;;;;;21.60;15.00;;;;;;;3.54;76.66;101815.23;147617;1146;104444;-76
2021/03/01 02:51:48;;;;;;;23.92;14.53;;;;;;;3.61;76.25;101823.71;147417;1146;104451;-73
2021/03/01 02:54:53;;;;;;;25.20;15.33;;;;;;;3.57;75.88;101822.14;147695;1146;104571;-74
2021/03/01 02:57:58;;;;;;;22.85;14.43;;;;;;;3.52;75.58;101819.72;147819;1147;104547;-72
2021/03/01 03:01:03;;;;;;;22.73;13.95;;;;;;;3.54;75.47;101822.27;147872;1147;104930;-73
2021/03/01 03:04:08;;;;;;;21.07;13.03;;;;;;;3.59;75.36;101822.92;147462;1146;104467;-76
2021/03/01 03:07:11;;;;;;;19.25;13.48;;;;;;;3.62;75.07;101824.56;147335;1147;104543;-76
2021/03/01 03:10:16;;;;;;;21.35;13.70;;;;;;;3.58;75.05;101823.87;147535;1147;104553;-76
2021/03/01 03:13:21;;;;;;;21.80;13.40;;;;;;;3.54;75.79;101823.15;147468;1147;104617;-78
2021/03/01 03:16:27;;;;;;;20.88;12.93;;;;;;;3.51;75.92;101831.19;147205;1147;104562;-74
2021/03/01 03:19:30;;;;;;;19.73;12.20;;;;;;;3.47;76.20;101824.34;147661;1147;104459;-76
2021/03/01 03:22:34;;;;;;;18.02;11.83;;;;;;;3.47;75.15;101834.05;147759;1147;104447;-76
2021/03/01 03:25:37;;;;;;;20.40;12.15;;;;;;;3.41;75.25;101835.17;147473;1147;104538;-77
2021/03/01 03:28:42;;;;;;;18.50;10.98;;;;;;;3.34;76.03;101831.93;147599;1147;104546;-74
2021/03/01 03:31:45;;;;;;;18.40;11.63;;;;;;;3.38;74.99;101835.30;147563;1147;104458;-79
2021/03/01 03:34:49;;;;;;;20.87;12.53;;;;;;;3.34;75.91;101842.48;147770;1147;104966;-80
2021/03/01 03:37:55;;;;;;;18.37;11.63;;;;;;;3.34;76.04;101841.64;147452;1147;104468;-83
2021/03/01 03:41:01;;;;;;;18.48;11.85;;;;;;;3.31;74.83;101845.28;147762;1147;104506;-77
2021/03/01 03:44:07;;;;;;;21.25;12.63;;;;;;;3.27;75.26;101850.73;147805;1147;104667;-78
2021/03/01 03:47:11;;;;;;;20.15;12.15;;;;;;;3.27;76.47;101848.98;147861;1147;104557;-76
2021/03/01 03:50:16;;;;;;;19.48;12.35;;;;;;;3.31;75.74;101847.04;147754;1146;104458;-74
2021/03/01 03:53:24;;;;;;;16.67;10.63;;;;;;;3.37;76.06;101843.27;147760;1147;104655;-77
2021/03/01 03:56:29;;;;;;;19.12;11.38;;;;;;;3.39;75.16;101844.06;147832;1147;104538;-80
2021/03/01 03:59:37;;;;;;;19.53;12.17;;;;;;;3.34;75.87;101842.48;147779;1147;104509;-76
2021/03/01 04:02:41;;;;;;;18.83;11.13;;;;;;;3.32;75.81;101849.61;147797;1147;104597;-77
2021/03/01 04:05:48;;;;;;;16.17;10.75;;;;;;;3.28;75.72;101849.83;147924;1147;104516;-75
2021/03/01 04:08:53;;;;;;;18.20;10.98;;;;;;;3.20;74.91;101844.03;147483;1147;104470;-72
2021/03/01 04:11:58;;;;;;;17.00;10.40;;;;;;;3.15;75.09;101850.34;147636;1147;104522;-78
2021/03/01 04:15:02;;;;;;;18.73;11.45;;;;;;;3.19;74.82;101843.16;147583;1148;104492;-77
2021/03/01 04:18:07;;;;;;;14.53;9.20;;;;;;;3.22;74.87;101852.73;148012;1147;104492;-77
2021/03/01 04:21:13;;;;;;;14.15;9.45;;;;;;;3.20;76.09;101849.31;148728;1148;104579;-77
2021/03/01 04:24:18;;;;;;;17.17;10.82;;;;;;;3.22;76.22;101847.46;147755;1145;104464;-77
2021/03/01 04:27:22;;;;;;;17.57;11.05;;;;;;;3.20;75.74;101844.03;147755;1148;104460;-77
2021/03/01 04:30:26;;;;;;;16.35;11.00;;;;;;;3.14;75.13;101848.64;147632;1147;104601;-74
2021/03/01 04:33:31;;;;;;;20.17;11.33;;;;;;;3.08;75.54;101841.00;147700;1146;104485;-73
2021/03/01 04:36:35;;;;;;;19.62;11.20;;;;;;;3.06;75.08;101853.39;147705;1147;104468;-75
2021/03/01 04:39:38;;;;;;;19.32;10.95;;;;;;;3.17;75.04;101850.28;147804;1146;104470;-79
2021/03/01 04:42:43;;;;;;;16.95;9.93;;;;;;;3.28;76.14;101841.91;147803;1147;104467;-78
2021/03/01 04:45:47;;;;;;;20.85;12.07;;;;;;;3.41;76.23;101848.37;147800;1145;104549;-75
2021/03/01 04:48:52;;;;;;;19.32;11.50;;;;;;;3.49;75.60;101850.66;147423;1147;104464;-75
2021/03/01 04:51:57;;;;;;;20.48;11.50;;;;;;;3.50;75.64;101853.25;147430;1147;104584;-75
2021/03/01 04:55:03;;;;;;;17.82;11.45;;;;;;;3.59;76.03;101861.67;147348;1147;104461;-77
2021/03/01 04:58:07;;;;;;;21.25;12.53;;;;;;;3.52;75.48;101866.34;147683;1147;104473;-76
2021/03/01 05:01:13;;;;;;;21.20;12.73;;;;;;;3.48;76.15;101868.30;147725;1148;104892;-77
2021/03/01 05:04:17;;;;;;;22.10;12.13;;;;;;;3.38;74.63;101863.47;147770;1147;104453;-76
2021/03/01 05:07:24;;;;;;;19.30;10.90;;;;;;;3.32;74.92;101870.72;147779;1146;104468;-74
2021/03/01 05:10:28;;;;;;;18.23;10.03;;;;;;;3.32;75.53;101875.15;147670;1148;104482;-78
2021/03/01 05:13:31;;;;;;;19.12;11.63;;;;;;;3.37;75.22;101875.82;147505;1147;104542;-74
2021/03/01 05:16:35;;;;;;;18.35;11.70;;;;;;;3.40;75.18;101878.30;147711;1148;104525;-75
2021/03/01 05:19:38;;;;;;;18.57;11.30;;;;;;;3.42;74.67;101878.24;147675;1147;104505;-75
2021/03/01 05:22:41;;;;;;;56.23;39.90;;;;;;;3.37;74.98;101880.21;147672;1146;104451;-76
2021/03/01 05:25:44;;;;;;;26.68;16.00;;;;;;;3.33;74.79;101893.56;147599;1147;104553;-75
2021/03/01 05:28:48;;;;;;;21.85;12.03;;;;;;;3.31;75.86;101894.52;147574;1147;104506;-74
2021/03/01 05:31:51;;;;;;;22.40;12.98;;;;;;;3.27;75.17;101892.95;147750;1147;104547;-74
2021/03/01 05:34:55;;;;;;;19.73;11.08;;;;;;;3.31;74.78;101910.36;147777;1147;104443;-75
2021/03/01 05:37:58;;;;;;;17.90;9.83;;;;;;;3.36;75.16;101913.67;147438;1146;104537;-75
2021/03/01 05:41:04;;;;;;;26.15;18.42;;;;;;;3.45;75.12;101913.27;147269;1146;104489;-77
2021/03/01 05:44:09;;;;;;;18.30;11.35;;;;;;;3.43;74.90;101907.20;147777;1148;104518;-74
2021/03/01 05:47:12;;;;;;;19.50;11.50;;;;;;;3.43;75.07;101915.13;147813;1147;104511;-75
2021/03/01 05:50:16;;;;;;;19.23;11.93;;;;;;;3.45;75.52;101918.55;147500;1146;104519;-75
2021/03/01 05:53:23;;;;;;;27.00;16.00;;;;;;;3.42;75.61;101923.95;147886;1147;104451;-72
2021/03/01 05:56:26;;;;;;;20.15;12.33;;;;;;;3.40;74.68;101924.95;147870;1146;104501;-73
2021/03/01 05:59:29;;;;;;;28.63;18.20;;;;;;;3.39;75.83;101933.77;147617;1147;104541;-73
2021/03/01 06:02:34;;;;;;;24.82;14.78;;;;;;;3.41;75.36;101924.05;147669;1147;104527;-75
2021/03/01 06:05:38;;;;;;;34.97;19.50;;;;;;;3.51;75.76;101930.62;147432;1148;104452;-76
2021/03/01 06:08:41;;;;;;;41.77;22.90;;;;;;;3.56;75.36;101933.05;147464;1146;104441;-77
2021/03/01 06:11:46;;;;;;;40.55;22.20;;;;;;;3.60;75.13;101942.55;147686;1147;104458;-76
2021/03/01 06:14:50;;;;;;;104.30;64.80;;;;;;;3.62;74.92;101936.30;147509;1147;104447;-77
2021/03/01 06:18:07;;;;;;;41.28;24.25;;;;;;;3.66;75.78;101937.03;147704;1147;104614;-74
2021/03/01 06:21:12;;;;;;;35.95;20.45;;;;;;;3.71;74.80;101937.66;147814;1148;104535;-78
2021/03/01 06:24:16;;;;;;;31.93;19.02;;;;;;;3.79;74.64;101943.49;147768;1147;104476;-74
2021/03/01 06:27:19;;;;;;;29.75;16.50;;;;;;;3.73;75.78;101949.02;147706;1147;104581;-77
2021/03/01 06:30:24;;;;;;;28.45;16.20;;;;;;;3.68;75.37;101948.38;147779;1147;104450;-74
2021/03/01 06:33:31;;;;;;;28.85;16.82;;;;;;;3.66;74.67;101953.72;147790;1147;104511;-75
2021/03/01 06:36:55;;;;;;;27.67;16.87;;;;;;;3.65;74.72;101965.19;147715;1147;104581;-75
2021/03/01 06:39:58;;;;;;;30.20;17.27;;;;;;;3.62;75.04;101959.17;147748;1147;104451;-74
2021/03/01 06:43:12;;;;;;;25.77;15.83;;;;;;;3.62;75.53;101956.54;147620;1147;104465;-76
2021/03/01 06:46:15;;;;;;;29.07;17.02;;;;;;;3.62;75.61;101953.90;147757;1147;104598;-75
2021/03/01 06:49:20;;;;;;;25.82;15.58;;;;;;;3.60;75.44;101953.11;147745;1147;104549;-75
2021/03/01 06:52:37;;;;;;;25.68;15.45;;;;;;;3.64;75.53;101962.64;147774;1147;104572;-77
2021/03/01 06:55:56;;;;;;;29.00;15.72;;;;;;;3.68;74.75;101970.34;147735;1147;104452;-74
2021/03/01 06:59:11;;;;;;;26.48;15.15;;;;;;;3.78;75.48;101968.16;147673;1147;104465;-75
2021/03/01 07:02:14;;;;;;;28.42;16.25;;;;;;;3.98;75.13;101969.06;147785;1147;104585;-75
2021/03/01 07:05:17;;;;;;;25.30;15.48;;;;;;;4.15;74.23;101971.80;147741;1147;104688;-75
2021/03/01 07:08:45;;;;;;;24.00;13.45;;;;;;;4.23;75.36;101969.66;147738;1147;104460;-77
2021/03/01 07:11:49;;;;;;;36.23;21.37;;;;;;;4.29;74.81;101971.17;147678;1146;104537;-75
2021/03/01 07:14:52;;;;;;;26.57;16.03;;;;;;;4.35;74.25;101968.27;147466;1147;104566;-75
2021/03/01 07:17:57;;;;;;;25.55;15.38;;;;;;;4.22;74.16;101973.25;147410;1147;104525;-76
2021/03/01 07:21:01;;;;;;;23.12;13.08;;;;;;;4.06;73.69;101966.92;147455;1147;104549;-74
2021/03/01 07:24:07;;;;;;;22.10;12.70;;;;;;;3.97;74.38;101967.37;147591;1147;104476;-75
2021/03/01 07:27:12;;;;;;;21.65;13.10;;;;;;;3.97;74.03;101970.01;147742;1147;104541;-74
2021/03/01 07:30:16;;;;;;;27.82;17.35;;;;;;;3.93;73.99;101964.84;147775;1147;104453;-76
2021/03/01 07:33:20;;;;;;;25.45;14.55;;;;;;;4.03;75.44;101962.66;147759;1147;104589;-78
2021/03/01 07:36:23;;;;;;;26.90;16.45;;;;;;;4.11;75.01;101975.52;147748;1147;104529;-79
2021/03/01 07:39:28;;;;;;;22.55;13.45;;;;;;;4.16;74.91;101975.30;147809;1146;104543;-79
2021/03/01 07:42:33;;;;;;;24.43;14.15;;;;;;;4.14;74.54;101972.75;147742;1147;104529;-77
2021/03/01 07:45:38;;;;;;;28.25;17.25;;;;;;;4.24;75.20;101981.96;147812;1147;104532;-80
2021/03/01 07:48:43;;;;;;;23.85;14.95;;;;;;;4.23;74.12;101974.95;147835;1146;104492;-78
2021/03/01 07:51:48;;;;;;;34.95;17.75;;;;;;;4.17;74.09;101979.66;147745;1146;104544;-79
2021/03/01 07:54:53;;;;;;;30.43;16.37;;;;;;;4.19;74.85;101983.94;147948;1147;104921;-81
2021/03/01 07:58:04;;;;;;;23.57;12.80;;;;;;;4.15;74.53;101979.73;148023;1147;104445;-79
2021/03/01 08:01:17;;;;;;;21.35;12.43;;;;;;;4.06;74.10;101990.70;147643;1147;104540;-78
2021/03/01 08:04:34;;;;;;;23.10;13.35;;;;;;;4.06;74.57;101982.78;147599;1146;104453;-78
2021/03/01 08:07:42;;;;;;;20.68;13.03;;;;;;;4.10;74.13;101993.16;147749;1147;105012;-83
2021/03/01 08:10:45;;;;;;;55.83;32.60;;;;;;;4.20;74.74;101995.39;147860;1147;104866;-79
2021/03/01 08:13:48;;;;;;;31.02;18.37;;;;;;;4.25;74.24;101996.91;147765;1147;104455;-78
2021/03/01 08:17:25;;;;;;;22.13;12.57;;;;;;;4.26;74.39;102000.39;147772;1146;104461;-84
2021/03/01 08:20:34;;;;;;;50.23;26.52;;;;;;;4.46;74.04;102002.12;147594;1147;104502;-79
2021/03/01 08:23:37;;;;;;;45.12;24.35;;;;;;;4.52;73.63;102001.83;147481;1147;104567;-78
2021/03/01 08:26:40;;;;;;;30.05;16.55;;;;;;;4.56;74.30;102006.07;147326;1148;104450;-82
2021/03/01 08:29:43;;;;;;;20.12;11.95;;;;;;;4.56;73.80;102019.30;147294;1147;104464;-78
2021/03/01 08:33:22;;;;;;;25.63;15.53;;;;;;;4.48;74.30;102011.71;147235;1147;104472;-79
2021/03/01 08:36:26;;;;;;;15.70;10.03;;;;;;;4.45;73.52;102016.28;147358;1147;104514;-82
2021/03/01 08:40:00;;;;;;;15.48;9.45;;;;;;;4.30;73.76;102013.39;147575;1147;104620;-78
2021/03/01 08:43:05;;;;;;;16.85;9.85;;;;;;;4.28;74.09;102017.04;147095;1147;104636;-77
2021/03/01 08:46:17;;;;;;;15.70;9.05;;;;;;;4.28;73.82;102019.68;147713;1146;104492;-79
2021/03/01 08:49:29;;;;;;;26.52;13.18;;;;;;;4.30;74.38;102023.95;147773;1147;104472;-79
2021/03/01 08:52:32;;;;;;;126.42;64.97;;;;;;;4.57;74.31;102028.07;147667;1147;104543;-79
2021/03/01 08:55:37;;;;;;;24.05;12.80;;;;;;;4.75;73.48;102032.48;147653;1147;104601;-80
2021/03/01 08:58:40;;;;;;;18.27;9.95;;;;;;;4.69;72.10;102041.56;147609;1147;104520;-80
2021/03/01 09:01:50;;;;;;;16.05;9.60;;;;;;;4.58;73.63;102043.87;147425;1147;104451;-81
2021/03/01 09:05:07;;;;;;;14.98;9.65;;;;;;;4.57;73.05;102047.42;147712;1146;104580;-81
2021/03/01 09:08:11;;;;;;;18.02;10.05;;;;;;;4.61;73.15;102049.00;147698;1147;104553;-79
2021/03/01 09:11:17;;;;;;;14.90;8.90;;;;;;;4.65;73.34;102050.56;147736;1147;104544;-83
2021/03/01 09:14:26;;;;;;;21.37;13.55;;;;;;;4.75;73.19;102048.36;147709;1147;104554;-79
2021/03/01 09:17:29;;;;;;;21.82;10.75;;;;;;;4.85;73.24;102043.48;147709;1147;104451;-79
2021/03/01 09:20:41;;;;;;;18.57;11.22;;;;;;;4.74;72.50;102046.66;147534;1147;104462;-80
2021/03/01 09:23:47;;;;;;;20.92;12.25;;;;;;;4.81;73.82;102049.86;147728;1147;104545;-79
2021/03/01 09:26:52;;;;;;;18.32;10.63;;;;;;;4.96;73.19;102043.84;147766;1146;104671;-79
2021/03/01 09:30:03;;;;;;;19.42;11.68;;;;;;;4.93;72.42;102046.66;147775;1147;104493;-78
2021/03/01 09:33:09;;;;;;;19.25;12.18;;;;;;;4.84;72.45;102055.02;147757;1147;104585;-77
2021/03/01 09:36:13;;;;;;;17.27;11.28;;;;;;;4.83;73.47;102048.88;147786;1147;104445;-80
2021/03/01 09:39:19;;;;;;;21.33;12.47;;;;;;;4.94;73.33;102060.73;147786;1147;104534;-77
2021/03/01 09:42:23;;;;;;;43.43;24.83;;;;;;;5.08;73.07;102051.22;147750;1148;104492;-77
2021/03/01 09:45:26;;;;;;;26.82;16.67;;;;;;;5.32;73.30;102053.60;147822;1146;104532;-80
2021/03/01 09:48:31;;;;;;;27.93;17.70;;;;;;;5.50;73.21;102058.00;147576;1147;104553;-80
2021/03/01 09:51:35;;;;;;;25.77;16.37;;;;;;;5.68;72.68;102058.87;147462;1147;104886;-80
2021/03/01 09:54:39;;;;;;;24.75;15.93;;;;;;;5.81;72.60;102059.12;147742;1147;104566;-81
2021/03/01 09:57:43;;;;;;;18.23;12.57;;;;;;;5.81;71.00;102072.36;147601;1147;104656;-81
2021/03/01 10:00:46;;;;;;;19.50;11.80;;;;;;;5.66;72.38;102076.63;147458;1147;104501;-80
2021/03/01 10:03:50;;;;;;;17.27;11.33;;;;;;;5.45;71.63;102075.90;147747;1148;104540;-80
2021/03/01 10:06:53;;;;;;;16.23;10.63;;;;;;;5.27;71.38;102079.42;147731;1148;104572;-78
2021/03/01 10:09:58;;;;;;;17.80;10.90;;;;;;;5.10;71.62;102078.46;147734;1147;104597;-77
2021/03/01 10:13:01;;;;;;;15.72;9.68;;;;;;;4.98;72.81;102073.73;147754;1147;104627;-77
2021/03/01 10:16:05;;;;;;;17.30;11.57;;;;;;;5.00;72.87;102066.58;147782;1147;104678;-84
2021/03/01 10:19:15;;;;;;;45.00;27.30;;;;;;;5.24;72.88;102069.00;147916;1147;104812;-77
2021/03/01 10:22:18;;;;;;;38.13;24.82;;;;;;;5.43;72.15;102080.41;147730;1147;104581;-78
2021/03/01 10:25:32;;;;;;;21.82;13.53;;;;;;;5.54;72.08;102082.52;147272;1147;104538;-78
2021/03/01 10:28:37;;;;;;;35.23;21.52;;;;;;;5.45;72.16;102078.55;147472;1147;104620;-77
2021/03/01 10:31:40;;;;;;;37.38;21.17;;;;;;;5.48;71.73;102082.82;147407;1147;104490;-80
2021/03/01 10:34:44;;;;;;;28.38;15.05;;;;;;;5.51;71.98;102077.39;147615;1147;104525;-78
2021/03/01 10:38:03;;;;;;;51.80;29.77;;;;;;;5.48;72.40;102077.53;147387;1147;104566;-79
2021/03/01 10:41:17;;;;;;;23.42;12.93;;;;;;;5.33;71.51;102073.83;147741;1146;104502;-78
2021/03/01 10:44:28;;;;;;;23.90;15.07;;;;;;;5.23;71.81;102076.06;147707;1146;104598;-76
2021/03/01 10:47:33;;;;;;;21.50;12.30;;;;;;;5.21;71.63;102072.64;147847;1147;104469;-79
2021/03/01 10:50:37;;;;;;;19.35;11.35;;;;;;;5.15;71.85;102085.32;147760;1147;104474;-82
2021/03/01 10:53:40;;;;;;;22.03;13.67;;;;;;;5.08;72.09;102076.80;147737;1147;104469;-80
2021/03/01 10:56:43;;;;;;;18.90;12.13;;;;;;;5.14;71.96;102076.53;147458;1146;104535;-79
2021/03/01 10:59:50;;;;;;;39.98;26.23;;;;;;;5.27;72.39;102077.66;147750;1147;104970;-78
2021/03/01 11:02:56;;;;;;;30.95;18.67;;;;;;;5.42;71.74;102072.54;147777;1147;104488;-78
2021/03/01 11:05:59;;;;;;;32.80;22.75;;;;;;;5.57;72.51;102076.23;147653;1147;104503;-78
2021/03/01 11:09:04;;;;;;;30.37;19.12;;;;;;;5.66;71.37;102086.38;147724;1146;104562;-77
2021/03/01 11:12:08;;;;;;;35.20;19.80;;;;;;;5.66;71.90;102081.08;147760;1147;104901;-77
2021/03/01 11:15:13;;;;;;;33.23;21.82;;;;;;;5.67;71.77;102075.68;147625;1147;104545;-78
2021/03/01 11:18:16;;;;;;;42.15;27.22;;;;;;;5.80;72.09;102080.38;147320;1146;104597;-79
2021/03/01 11:21:20;;;;;;;25.88;16.12;;;;;;;5.86;71.65;102078.27;147305;1146;104914;-77
2021/03/01 11:24:23;;;;;;;27.50;14.10;;;;;;;5.86;71.62;102075.61;147723;1147;104490;-81
2021/03/01 11:27:26;;;;;;;24.40;14.80;;;;;;;6.00;71.36;102063.48;147758;1147;104484;-78
2021/03/01 11:30:30;;;;;;;23.42;15.10;;;;;;;5.91;70.66;102075.41;147723;1145;104451;-77
2021/03/01 11:33:33;;;;;;;28.17;18.00;;;;;;;5.79;71.67;102078.66;147747;1146;104572;-77
2021/03/01 11:36:37;;;;;;;31.45;18.67;;;;;;;5.93;71.50;102067.34;147734;1146;104470;-77
2021/03/01 11:39:41;;;;;;;52.90;32.53;;;;;;;6.04;71.65;102060.63;147711;1147;104543;-81
2021/03/01 11:42:44;;;;;;;32.80;19.57;;;;;;;6.22;72.29;102056.14;147769;1147;104543;-78
2021/03/01 11:45:47;;;;;;;28.62;17.95;;;;;;;6.31;71.31;102048.64;147749;1146;104573;-78
2021/03/01 11:48:51;;;;;;;31.25;20.52;;;;;;;6.40;70.88;102048.16;147772;1148;104623;-77
2021/03/01 11:51:54;;;;;;;28.05;18.67;;;;;;;6.51;71.55;102047.59;147762;1147;104898;-81
2021/03/01 11:54:58;;;;;;;23.10;15.40;;;;;;;6.52;71.71;102047.48;147421;1147;104479;-78
2021/03/01 11:58:02;;;;;;;21.93;13.53;;;;;;;6.55;71.12;102047.33;147709;1147;104455;-78
2021/03/01 12:01:06;;;;;;;26.57;16.33;;;;;;;6.56;70.64;102056.98;147751;1147;104691;-77
2021/03/01 12:04:09;;;;;;;24.90;15.90;;;;;;;6.59;70.78;102035.61;147813;1147;104543;-78
2021/03/01 12:07:13;;;;;;;23.65;14.70;;;;;;;6.68;70.91;102047.53;147707;1147;104467;-77
2021/03/01 12:10:16;;;;;;;22.20;14.38;;;;;;;6.79;71.06;102041.61;147762;1147;104451;-83
2021/03/01 12:13:20;;;;;;;118.85;60.48;;;;;;;6.88;70.18;102041.11;147748;1148;104591;-76
2021/03/01 12:16:23;;;;;;;97.72;49.40;;;;;;;6.85;70.60;102044.80;147729;1147;104540;-79
2021/03/01 12:19:26;;;;;;;69.65;37.53;;;;;;;6.74;70.36;102044.53;147818;1147;104578;-84
2021/03/01 12:22:29;;;;;;;139.00;72.43;;;;;;;6.65;70.45;102050.34;147777;1147;104544;-79
2021/03/01 12:25:32;;;;;;;125.07;66.85;;;;;;;6.64;70.70;102038.00;147765;1147;104528;-78
2021/03/01 12:28:36;;;;;;;92.97;47.70;;;;;;;6.60;71.00;102047.95;147794;1146;104473;-82
2021/03/01 12:31:39;;;;;;;62.17;33.28;;;;;;;6.61;69.91;102043.48;147678;1147;104902;-78
2021/03/01 12:34:42;;;;;;;80.72;47.88;;;;;;;6.44;69.93;102045.24;147547;1147;104883;-78
2021/03/01 12:37:45;;;;;;;62.90;34.83;;;;;;;6.40;70.44;102042.84;147752;1147;104538;-78
2021/03/01 12:40:49;;;;;;;168.93;82.00;;;;;;;6.31;70.68;102041.53;147747;1148;104597;-77
2021/03/01 12:43:52;;;;;;;138.85;66.77;;;;;;;6.36;70.58;102041.30;147798;1147;104621;-81
2021/03/01 12:46:55;;;;;;;62.93;34.77;;;;;;;6.37;71.07;102035.92;147769;1147;104684;-79
2021/03/01 12:49:58;;;;;;;96.25;51.90;;;;;;;6.48;71.28;102043.28;147603;1147;104543;-80
2021/03/01 12:53:01;;;;;;;50.25;30.48;;;;;;;6.60;70.22;102045.30;147692;1147;104526;-77
2021/03/01 12:56:05;;;;;;;125.22;68.40;;;;;;;6.68;70.41;102043.08;147776;1147;104546;-79
2021/03/01 12:59:09;;;;;;;126.82;72.25;;;;;;;6.70;69.95;102040.34;147758;1147;104486;-78
2021/03/01 13:02:12;;;;;;;51.48;27.98;;;;;;;6.75;70.26;102038.27;147750;1147;104689;-77
2021/03/01 13:05:15;;;;;;;38.60;23.60;;;;;;;6.68;69.83;102039.57;147803;1147;104557;-78
2021/03/01 13:08:19;;;;;;;31.13;18.60;;;;;;;6.55;70.40;102041.17;147735;1147;104572;-78
2021/03/01 13:11:22;;;;;;;28.92;17.35;;;;;;;6.38;69.99;102036.77;147614;1147;104451;-78
2021/03/01 13:14:25;;;;;;;38.02;24.05;;;;;;;6.23;70.74;102044.59;147675;1147;104463;-83
2021/03/01 13:17:28;;;;;;;41.13;27.02;;;;;;;6.24;70.14;102043.66;147744;1147;104588;-77
2021/03/01 13:20:32;;;;;;;37.10;23.13;;;;;;;6.29;69.73;102049.59;147757;1147;104469;-78
2021/03/01 13:23:36;;;;;;;26.42;14.65;;;;;;;6.16;70.17;102050.29;147327;1148;104461;-80
2021/03/01 13:26:39;;;;;;;25.88;15.55;;;;;;;6.08;69.42;102040.09;147570;1147;104842;-78
2021/03/01 13:29:42;;;;;;;41.08;28.57;;;;;;;6.03;70.43;102035.05;147744;1146;104539;-79
2021/03/01 13:32:45;;;;;;;27.90;17.37;;;;;;;6.04;69.92;102039.42;147744;1148;104639;-77
2021/03/01 13:35:48;;;;;;;44.42;30.95;;;;;;;6.20;70.27;102035.97;147782;1147;104466;-77
2021/03/01 13:38:51;;;;;;;51.13;35.33;;;;;;;6.32;70.32;102030.00;147634;1147;104451;-78
2021/03/01 13:41:54;;;;;;;31.12;17.82;;;;;;;6.43;69.46;102032.94;147781;1147;104526;-77
2021/03/01 13:44:58;;;;;;;35.50;23.47;;;;;;;6.35;70.45;102032.50;147523;1146;104996;-78
2021/03/01 13:48:01;;;;;;;32.55;20.62;;;;;;;6.40;69.70;102021.64;147633;1147;104541;-79
2021/03/01 13:51:05;;;;;;;32.67;21.57;;;;;;;6.44;70.30;102023.18;147571;1147;104505;-78
2021/03/01 13:54:08;;;;;;;24.00;15.47;;;;;;;6.42;69.70;102019.76;147621;1147;104547;-78